Terminal Aerodrome Forecast
Issued by NWS Cleveland, OH

Home | Current Version | Previous Version | Text Only | Print | Product List | Glossary Off
Versions: 1 2 3 4 5 6 7 8 9 10 11 12 13 14 15 16 17 18 19 20 21 22 23 24

000
FTUS41 KCLE 241000 AAB
TAFERI
TAF AMD
KERI 241024Z 2410/2506 24004KT P6SM OVC009
     FM241400 25008KT P6SM OVC015
     FM242100 26010KT 3SM -SN BR BKN009 OVC015 PROB30 2421/2503
      -FZDZSN OVC006=

USA.gov is the U.S. government's official web portal to all federal, state and local government web resources and services.